createdAt,value
2022-09-23T00:00:07.032Z,2.88
2022-09-23T00:05:14.746Z,2.88
2022-09-23T00:10:22.666Z,2.89
2022-09-23T00:15:29.002Z,2.88
2022-09-23T00:20:36.103Z,2.88
2022-09-23T00:25:45.115Z,2.88
2022-09-23T00:30:52.606Z,2.88
2022-09-23T00:35:59.998Z,2.88
2022-09-23T00:41:07.749Z,2.88
2022-09-23T00:46:15.282Z,2.88
2022-09-23T00:51:21.866Z,2.88
2022-09-23T00:56:29.619Z,2.88
2022-09-23T01:01:37.817Z,2.87
2022-09-23T01:06:44.731Z,2.88
2022-09-23T01:11:53.562Z,2.87
2022-09-23T01:17:01.668Z,2.87
2022-09-23T01:22:08.659Z,2.87
2022-09-23T01:27:15.504Z,2.87
2022-09-23T01:32:23.332Z,2.86
2022-09-23T01:37:40.327Z,2.87
2022-09-23T01:42:47.773Z,2.86
2022-09-23T01:47:56.264Z,2.87
2022-09-23T01:53:04.782Z,2.87
2022-09-23T01:58:12.121Z,2.86
2022-09-23T02:03:20.091Z,2.87
2022-09-23T02:08:28.469Z,2.86
2022-09-23T02:13:35.669Z,2.87
2022-09-23T02:18:44.043Z,2.87
2022-09-23T02:23:51.322Z,2.87
2022-09-23T02:28:59.074Z,2.86
2022-09-23T02:34:08.051Z,2.85
2022-09-23T02:39:17.016Z,2.86
2022-09-23T02:44:24.747Z,2.86
2022-09-23T02:49:40.742Z,2.87
2022-09-23T02:54:47.941Z,2.86
2022-09-23T02:59:55.766Z,2.87
2022-09-23T03:05:03.667Z,2.87
2022-09-23T03:10:11.450Z,2.87
2022-09-23T03:15:19.287Z,2.86
2022-09-23T03:20:27.446Z,2.86
2022-09-23T03:25:37.361Z,2.86
2022-09-23T03:30:45.323Z,2.86
2022-09-23T03:35:52.128Z,2.86
2022-09-23T03:41:00.407Z,2.86
2022-09-23T03:46:09.146Z,2.87
2022-09-23T03:51:17.367Z,2.86
2022-09-23T03:56:24.588Z,2.88
2022-09-23T04:01:32.536Z,2.86
2022-09-23T04:06:39.670Z,2.87
2022-09-23T04:11:46.867Z,2.88
2022-09-23T04:17:03.334Z,2.85
2022-09-23T04:22:10.809Z,2.87
2022-09-23T04:27:18.261Z,2.86
2022-09-23T04:32:25.215Z,2.86
2022-09-23T04:37:33.011Z,2.86
2022-09-23T04:42:41.465Z,2.88
2022-09-23T04:47:48.907Z,2.86
2022-09-23T04:52:56.576Z,2.86
2022-09-23T04:58:03.128Z,2.86
2022-09-23T05:03:11.363Z,2.86
2022-09-23T05:08:20.069Z,2.87
2022-09-23T05:13:28.455Z,2.86
2022-09-23T05:18:35.817Z,2.87
2022-09-23T05:23:44.194Z,2.86
2022-09-23T05:28:52.599Z,2.86
2022-09-23T05:34:00.572Z,2.86
2022-09-23T05:39:08.355Z,2.86
2022-09-23T05:44:15.789Z,2.86
2022-09-23T05:49:25.048Z,2.86
2022-09-23T05:54:33.372Z,2.87
2022-09-23T05:59:40.766Z,2.88
2022-09-23T06:04:48.371Z,2.91
2022-09-23T06:09:57.776Z,2.94
2022-09-23T06:15:06.360Z,2.95
2022-09-23T06:20:14.333Z,2.94
2022-09-23T06:25:22.537Z,2.95
2022-09-23T06:30:32.258Z,2.97
2022-09-23T06:35:39.193Z,2.96
2022-09-23T06:40:47.024Z,2.96
2022-09-23T06:45:54.817Z,2.97
2022-09-23T06:51:02.861Z,2.96
2022-09-23T06:56:11.882Z,2.96
2022-09-23T07:01:18.989Z,2.97
2022-09-23T07:06:26.336Z,2.96
2022-09-23T07:11:34.241Z,2.96
2022-09-23T07:16:41.213Z,2.97
2022-09-23T07:21:48.939Z,2.96
2022-09-23T07:26:56.870Z,2.95
2022-09-23T07:32:04.308Z,2.96
2022-09-23T07:37:11.964Z,2.97
2022-09-23T07:42:19.767Z,2.96
2022-09-23T07:47:26.314Z,2.97
2022-09-23T07:52:34.241Z,2.96
2022-09-23T07:57:42.509Z,2.97
2022-09-23T08:02:50.636Z,2.97
2022-09-23T08:07:57.973Z,2.97
2022-09-23T08:13:06.067Z,2.97
2022-09-23T08:18:14.425Z,2.97
2022-09-23T08:23:22.376Z,2.97
2022-09-23T08:28:30.585Z,2.98
2022-09-23T08:33:38.826Z,2.97
2022-09-23T08:38:46.667Z,2.98
2022-09-23T08:43:54.340Z,2.98
2022-09-23T08:49:01.749Z,2.97
2022-09-23T08:54:09.383Z,2.97
2022-09-23T08:59:16.784Z,2.96
2022-09-23T09:04:24.063Z,2.97
2022-09-23T09:09:31.240Z,2.96
2022-09-23T09:14:38.976Z,2.97
2022-09-23T09:19:46.826Z,2.96
2022-09-23T09:24:56.352Z,2.96
2022-09-23T09:30:04.180Z,2.97
2022-09-23T09:35:12.187Z,2.96
2022-09-23T09:40:19.530Z,2.96
2022-09-23T09:45:27.657Z,2.96
2022-09-23T09:50:36.047Z,2.96
2022-09-23T09:55:43.670Z,2.95
2022-09-23T10:00:52.342Z,2.96
2022-09-23T10:06:00.116Z,2.96
2022-09-23T10:11:07.834Z,2.96
2022-09-23T10:16:16.122Z,2.95
2022-09-23T10:21:25.018Z,2.96
2022-09-23T10:26:32.519Z,2.97
2022-09-23T10:31:40.082Z,2.95
2022-09-23T10:36:48.084Z,2.97
2022-09-23T10:41:54.755Z,2.96
2022-09-23T10:47:01.322Z,2.97
2022-09-23T10:52:09.279Z,2.97
2022-09-23T10:57:16.480Z,2.96
2022-09-23T11:02:25.235Z,2.96
2022-09-23T11:07:33.329Z,2.96
2022-09-23T11:12:39.901Z,2.96
2022-09-23T11:17:47.738Z,2.96
2022-09-23T11:22:55.512Z,2.96
2022-09-23T11:28:03.370Z,2.96
2022-09-23T11:33:11.258Z,2.96
2022-09-23T11:38:19.710Z,2.97
2022-09-23T11:43:27.766Z,2.96
2022-09-23T11:48:34.834Z,2.98
2022-09-23T11:53:42.833Z,2.96
2022-09-23T11:58:50.471Z,2.97
2022-09-23T12:03:59.703Z,2.96
2022-09-23T12:09:07.487Z,2.97
2022-09-23T12:14:13.993Z,2.96
2022-09-23T12:19:22.526Z,2.96
2022-09-23T12:24:31.542Z,2.96
2022-09-23T12:29:42.269Z,2.96
2022-09-23T12:34:49.876Z,2.96
2022-09-23T12:39:56.383Z,2.96
2022-09-23T12:45:05.180Z,2.95
2022-09-23T12:50:12.723Z,2.96
2022-09-23T12:55:21.701Z,2.96
2022-09-23T13:00:29.396Z,2.95
2022-09-23T13:05:37.558Z,2.95
2022-09-23T13:10:44.761Z,2.95
2022-09-23T13:15:52.243Z,2.96
2022-09-23T13:20:59.172Z,2.96
2022-09-23T13:26:07.170Z,2.95
2022-09-23T13:31:15.436Z,2.95
2022-09-23T13:36:23.779Z,2.96
2022-09-23T13:41:31.630Z,2.95
2022-09-23T13:46:39.025Z,2.96
2022-09-23T13:51:47.182Z,2.95
2022-09-23T13:56:54.683Z,2.96
2022-09-23T14:02:02.616Z,2.96
2022-09-23T14:07:09.739Z,2.96
2022-09-23T14:12:18.026Z,2.96
2022-09-23T14:17:25.976Z,2.96
2022-09-23T14:22:32.520Z,2.95
2022-09-23T14:27:40.899Z,2.96
2022-09-23T14:32:47.897Z,2.96
2022-09-23T14:37:56.204Z,2.96
2022-09-23T14:43:04.606Z,2.96
2022-09-23T14:48:12.140Z,2.96
2022-09-23T14:53:19.020Z,2.96
2022-09-23T14:58:26.645Z,2.96
2022-09-23T15:03:33.413Z,2.97
2022-09-23T15:08:41.835Z,2.96
2022-09-23T15:13:50.723Z,2.97
2022-09-23T15:18:59.583Z,2.97
2022-09-23T15:24:06.653Z,2.97
2022-09-23T15:29:13.854Z,2.96
2022-09-23T15:34:21.046Z,2.96
2022-09-23T15:39:28.480Z,2.96
2022-09-23T15:44:36.778Z,2.95
2022-09-23T15:49:44.933Z,2.94
2022-09-23T15:54:52.829Z,2.94
2022-09-23T15:59:59.613Z,2.94
2022-09-23T16:05:07.067Z,2.94
2022-09-23T16:10:14.597Z,2.93
2022-09-23T16:15:21.676Z,2.94
2022-09-23T16:20:27.808Z,2.93
2022-09-23T16:25:35.621Z,2.93
2022-09-23T16:30:43.094Z,2.93
2022-09-23T16:35:50.655Z,2.93
2022-09-23T16:40:58.497Z,2.93
2022-09-23T16:46:06.339Z,2.92
2022-09-23T16:51:14.553Z,2.94
2022-09-23T16:56:22.074Z,2.93
2022-09-23T17:01:30.580Z,2.93
2022-09-23T17:06:37.699Z,2.92
2022-09-23T17:11:50.027Z,2.92
2022-09-23T17:16:57.218Z,2.91
2022-09-23T17:22:05.217Z,2.92
2022-09-23T17:27:12.269Z,2.92
2022-09-23T17:32:19.467Z,2.91
2022-09-23T17:37:27.316Z,2.92
2022-09-23T17:42:35.138Z,2.91
2022-09-23T17:47:42.337Z,2.92
2022-09-23T17:52:49.746Z,2.91
2022-09-23T17:57:56.754Z,2.91
2022-09-23T18:03:04.770Z,2.92
2022-09-23T18:08:12.540Z,2.91
2022-09-23T18:13:19.626Z,2.92
2022-09-23T18:18:28.008Z,2.9
2022-09-23T18:23:35.991Z,2.9
2022-09-23T18:28:44.180Z,2.91
2022-09-23T18:33:50.984Z,2.91
2022-09-23T18:38:58.921Z,2.91
2022-09-23T18:44:06.615Z,2.9
2022-09-23T18:49:13.941Z,2.9
2022-09-23T18:54:22.887Z,2.9
2022-09-23T18:59:30.194Z,2.9
2022-09-23T19:04:37.431Z,2.9
2022-09-23T19:09:45.135Z,2.9
2022-09-23T19:14:53.118Z,2.9
2022-09-23T19:20:00.912Z,2.91
2022-09-23T19:25:09.324Z,2.9
2022-09-23T19:30:17.282Z,2.9
2022-09-23T19:35:25.436Z,2.89
2022-09-23T19:40:39.311Z,2.91
2022-09-23T19:45:48.432Z,2.9
2022-09-23T19:51:17.756Z,2.89
2022-09-23T19:56:25.919Z,2.89
2022-09-23T20:01:32.479Z,2.89
2022-09-23T20:06:39.678Z,2.89
2022-09-23T20:11:48.393Z,2.89
2022-09-23T20:16:56.722Z,2.9
2022-09-23T20:22:04.438Z,2.89
2022-09-23T20:27:11.635Z,2.89
2022-09-23T20:32:18.908Z,2.9
2022-09-23T20:37:27.849Z,2.89
2022-09-23T20:42:36.347Z,2.89
2022-09-23T20:47:43.664Z,2.89
2022-09-23T20:53:06.133Z,2.9
2022-09-23T20:58:13.629Z,2.88
2022-09-23T21:03:20.755Z,2.89
2022-09-23T21:08:29.427Z,2.9
2022-09-23T21:13:36.916Z,2.89
2022-09-23T21:18:45.151Z,2.9
2022-09-23T21:23:52.611Z,2.88
2022-09-23T21:29:00.965Z,2.9
2022-09-23T21:34:09.773Z,2.88
2022-09-23T21:39:17.374Z,2.89
2022-09-23T21:44:24.594Z,2.9
2022-09-23T21:49:33.086Z,2.89
2022-09-23T21:54:41.437Z,2.89
2022-09-23T21:59:49.067Z,2.89
2022-09-23T22:05:03.369Z,2.89
2022-09-23T22:10:11.395Z,2.89
2022-09-23T22:15:17.380Z,2.89
2022-09-23T22:20:25.698Z,2.89
2022-09-23T22:25:33.677Z,2.89
2022-09-23T22:30:41.949Z,2.88
2022-09-23T22:35:49.438Z,2.89
2022-09-23T22:40:56.314Z,2.88
2022-09-23T22:46:06.867Z,2.88
2022-09-23T22:51:15.465Z,2.88
2022-09-23T22:56:22.671Z,2.88
2022-09-23T23:01:31.219Z,2.88
2022-09-23T23:06:40.078Z,2.88
2022-09-23T23:11:46.830Z,2.88
2022-09-23T23:16:54.194Z,2.88
2022-09-23T23:22:01.967Z,2.89
2022-09-23T23:27:10.207Z,2.89
2022-09-23T23:32:18.716Z,2.88
2022-09-23T23:37:26.635Z,2.9
2022-09-23T23:42:34.514Z,2.88
2022-09-23T23:47:42.301Z,2.88
2022-09-23T23:52:50.548Z,2.88
2022-09-23T23:57:57.406Z,2.88
